Time;durP1;ratioP1;P1;durP2;ratioP2;P2;SDS_P1;SDS_P2;PMS_P1;PMS_P2;Temp;Humidity;BMP_temperature;BMP_pressure;BME280_temperature;BME280_humidity;BME280_pressure;Samples;Min_cycle;Max_cycle;Signal;HPM_P1;HPM_P2
2022/08/18 00:02:24;;;;;;;18.25;16.50;;;20.30;99.90;;;;;;5077718;28;20077;-58
2022/08/18 00:04:52;;;;;;;18.58;16.77;;;20.30;99.90;;;;;;5088301;28;20103;-57
2022/08/18 00:07:21;;;;;;;18.98;17.15;;;20.30;99.90;;;;;;5088454;28;20114;-59
2022/08/18 00:09:47;;;;;;;18.08;16.42;;;20.30;99.90;;;;;;5088093;28;20285;-58
2022/08/18 00:12:21;;;;;;;18.30;16.35;;;20.30;99.90;;;;;;5085948;28;20025;-57
2022/08/18 00:14:47;;;;;;;17.70;15.95;;;20.30;99.90;;;;;;5085392;28;20473;-58
2022/08/18 00:17:14;;;;;;;18.20;16.33;;;20.30;99.90;;;;;;5082746;28;20048;-58
2022/08/18 00:19:40;;;;;;;18.23;16.42;;;20.30;99.90;;;;;;5087800;28;20051;-57
2022/08/18 00:22:06;;;;;;;17.90;16.20;;;20.30;99.90;;;;;;5084092;28;20032;-58
2022/08/18 00:24:32;;;;;;;18.15;16.38;;;20.30;99.90;;;;;;5085124;28;20051;-57
2022/08/18 00:26:57;;;;;;;16.85;15.25;;;20.30;99.90;;;;;;5087967;28;20533;-58
2022/08/18 00:29:24;;;;;;;15.52;13.95;;;20.30;99.90;;;;;;5088122;28;20111;-58
2022/08/18 00:31:50;;;;;;;15.98;14.32;;;20.30;99.90;;;;;;5083563;28;20044;-58
2022/08/18 00:34:16;;;;;;;16.00;14.40;;;20.30;99.90;;;;;;5085233;28;20028;-58
2022/08/18 00:36:42;;;;;;;16.20;14.50;;;20.30;99.90;;;;;;5088188;28;20523;-58
2022/08/18 00:39:07;;;;;;;16.63;14.68;;;20.30;99.90;;;;;;5088263;28;20388;-58
2022/08/18 00:41:33;;;;;;;15.00;13.60;;;20.30;99.90;;;;;;5076600;28;20050;-57
2022/08/18 00:43:58;;;;;;;14.88;13.50;;;20.30;99.90;;;;;;5087956;28;20024;-58
2022/08/18 00:46:28;;;;;;;14.85;13.43;;;20.30;99.90;;;;;;5089841;28;20111;-58
2022/08/18 00:48:55;;;;;;;14.68;13.27;;;20.30;99.90;;;;;;5086852;28;20016;-58
2022/08/18 00:51:28;;;;;;;14.50;13.10;;;20.30;99.90;;;;;;5091014;28;20020;-57
2022/08/18 00:54:06;;;;;;;14.30;12.90;;;20.30;99.90;;;;;;5089543;28;20482;-58
2022/08/18 00:56:42;;;;;;;14.52;13.10;;;20.30;99.90;;;;;;5090993;28;20469;-59
2022/08/18 00:59:16;;;;;;;15.25;13.48;;;20.30;99.90;;;;;;5087849;28;20028;-57
2022/08/18 01:01:43;;;;;;;16.10;14.05;;;20.30;99.90;;;;;;5088036;28;20024;-57
2022/08/18 01:04:14;;;;;;;14.70;13.30;;;20.20;99.90;;;;;;5090992;28;20035;-57
2022/08/18 01:06:54;;;;;;;14.40;13.02;;;20.20;99.90;;;;;;5088450;28;20422;-57
2022/08/18 01:09:21;;;;;;;13.18;12.02;;;20.30;99.90;;;;;;5089047;28;20020;-57
2022/08/18 01:11:47;;;;;;;17.02;12.75;;;20.20;99.90;;;;;;5091152;28;20113;-57
2022/08/18 01:14:17;;;;;;;14.10;12.80;;;20.20;99.90;;;;;;5090720;28;20489;-57
2022/08/18 01:22:31;;;;;;;14.90;13.50;;;20.10;99.90;;;;;;5086261;28;20085;-57
2022/08/18 01:27:43;;;;;;;16.23;14.63;;;20.10;99.90;;;;;;5090523;28;20512;-58
2022/08/18 01:30:12;;;;;;;14.48;13.15;;;20.10;99.90;;;;;;5086410;28;20044;-58
2022/08/18 01:32:41;;;;;;;14.50;13.10;;;20.10;99.90;;;;;;5091674;28;20024;-58
2022/08/18 01:35:12;;;;;;;14.23;12.93;;;20.00;99.90;;;;;;5088447;28;20434;-58
2022/08/18 01:37:37;;;;;;;13.45;12.15;;;20.00;99.90;;;;;;5090768;28;20508;-58
2022/08/18 01:40:06;;;;;;;14.35;12.85;;;20.00;99.90;;;;;;5088152;28;20028;-58
2022/08/18 01:42:33;;;;;;;13.60;12.33;;;19.90;99.90;;;;;;5090673;28;20393;-57
2022/08/18 01:44:58;;;;;;;13.18;11.93;;;19.90;99.90;;;;;;5087710;28;20326;-58
2022/08/18 01:47:24;;;;;;;14.05;12.68;;;19.90;99.90;;;;;;5084569;28;20474;-58
2022/08/18 01:49:52;;;;;;;14.98;12.30;;;19.90;99.90;;;;;;5088245;28;20434;-59
2022/08/18 01:52:19;;;;;;;12.82;11.63;;;19.80;99.90;;;;;;5090333;28;20089;-57
2022/08/18 01:54:46;;;;;;;13.45;12.25;;;19.80;99.90;;;;;;5090279;28;20020;-57
2022/08/18 01:57:13;;;;;;;13.82;12.38;;;19.80;99.90;;;;;;5089389;28;20102;-57
2022/08/18 01:59:40;;;;;;;13.02;11.80;;;19.70;99.90;;;;;;5090560;28;20016;-58
2022/08/18 02:02:05;;;;;;;13.43;12.10;;;19.70;99.90;;;;;;5090329;28;20069;-57
2022/08/18 02:04:33;;;;;;;13.35;11.95;;;19.70;99.90;;;;;;5089607;28;20028;-58
2022/08/18 02:07:01;;;;;;;12.32;11.13;;;19.70;99.90;;;;;;5085653;28;20066;-58
2022/08/18 02:09:29;;;;;;;12.30;11.10;;;19.70;99.90;;;;;;5086475;28;20028;-58
2022/08/18 02:11:55;;;;;;;12.75;11.50;;;19.70;99.90;;;;;;5089841;28;20116;-58
2022/08/18 02:14:21;;;;;;;13.75;12.35;;;19.70;99.90;;;;;;5089993;28;20064;-58
2022/08/18 02:16:47;;;;;;;13.52;12.18;;;19.60;99.90;;;;;;5089931;28;20037;-58
2022/08/18 02:19:13;;;;;;;15.07;12.45;;;19.60;99.90;;;;;;5087037;28;20024;-57
2022/08/18 02:21:39;;;;;;;12.95;11.43;;;19.60;99.90;;;;;;5089653;28;20023;-57
2022/08/18 02:24:04;;;;;;;11.82;10.70;;;19.60;99.90;;;;;;5084341;28;20023;-57
2022/08/18 02:26:30;;;;;;;11.98;10.77;;;19.50;99.90;;;;;;5089067;28;20037;-57
2022/08/18 02:28:56;;;;;;;12.40;11.25;;;19.50;99.90;;;;;;5089787;28;20101;-57
2022/08/18 02:31:23;;;;;;;11.98;10.88;;;19.50;99.90;;;;;;5086873;28;20077;-58
2022/08/18 02:33:50;;;;;;;11.38;10.38;;;19.50;99.90;;;;;;5093169;28;20028;-58
2022/08/18 02:36:16;;;;;;;11.02;9.93;;;19.50;99.90;;;;;;5083557;28;20500;-58
2022/08/18 02:38:42;;;;;;;10.85;9.77;;;19.50;99.90;;;;;;5087297;28;20031;-58
2022/08/18 02:41:09;;;;;;;10.60;9.60;;;19.60;99.90;;;;;;5089248;28;20048;-58
2022/08/18 02:43:37;;;;;;;10.73;9.73;;;19.50;99.90;;;;;;5082977;28;20120;-58
2022/08/18 02:46:04;;;;;;;10.32;9.43;;;19.50;99.90;;;;;;5087517;28;20024;-57
2022/08/18 02:48:36;;;;;;;10.45;9.55;;;19.60;99.90;;;;;;5089601;28;20016;-57
2022/08/18 02:51:07;;;;;;;10.48;9.40;;;19.60;99.90;;;;;;5086605;28;20161;-58
2022/08/18 02:53:34;;;;;;;9.90;8.95;;;19.60;99.90;;;;;;5088964;28;20050;-57
2022/08/18 02:56:26;;;;;;;10.13;9.13;;;19.60;99.90;;;;;;5088808;28;20111;-58
2022/08/18 02:58:58;;;;;;;9.40;8.60;;;19.60;99.90;;;;;;5089058;28;20020;-58
2022/08/18 03:01:28;;;;;;;9.57;8.73;;;19.60;99.90;;;;;;5089253;28;20016;-58
2022/08/18 03:03:55;;;;;;;9.10;8.25;;;19.50;99.90;;;;;;5085149;28;20028;-58
2022/08/18 03:06:21;;;;;;;9.23;8.18;;;19.60;99.90;;;;;;5088886;28;20546;-57
2022/08/18 03:08:49;;;;;;;9.05;8.13;;;19.60;99.90;;;;;;5083149;28;20051;-57
2022/08/18 03:11:17;;;;;;;9.30;8.38;;;19.60;99.90;;;;;;5078682;28;20024;-57
2022/08/18 03:13:42;;;;;;;9.85;8.85;;;19.60;99.90;;;;;;5088944;28;20112;-58
2022/08/18 03:16:08;;;;;;;9.77;8.88;;;19.60;99.90;;;;;;5088831;28;20123;-58
2022/08/18 03:18:33;;;;;;;10.55;8.68;;;19.60;99.90;;;;;;5088227;28;20085;-57
2022/08/18 03:21:11;;;;;;;9.50;8.60;;;19.60;99.90;;;;;;5089339;28;20108;-58
2022/08/18 03:23:40;;;;;;;8.70;7.88;;;19.60;99.90;;;;;;5086973;28;20035;-58
2022/08/18 03:26:10;;;;;;;;;;;19.60;99.90;;;;;;5087385;28;20031;-57
2022/08/18 03:28:37;;;;;;;7.43;6.75;;;19.50;99.90;;;;;;5085977;28;19908;-57
2022/08/18 03:31:03;;;;;;;8.48;7.68;;;19.50;99.90;;;;;;5088489;28;20063;-56
2022/08/18 03:33:28;;;;;;;8.85;8.05;;;19.50;99.90;;;;;;5085970;28;20052;-57
2022/08/18 03:35:54;;;;;;;8.85;8.05;;;19.50;99.90;;;;;;5088327;28;20055;-58
2022/08/18 03:38:19;;;;;;;8.93;8.13;;;19.50;99.90;;;;;;5086250;28;20036;-58
2022/08/18 03:40:52;;;;;;;9.77;8.77;;;19.50;99.90;;;;;;5088491;28;20044;-58
2022/08/18 03:43:18;;;;;;;8.70;7.90;;;19.50;99.90;;;;;;5084638;28;20085;-57
2022/08/18 03:45:43;;;;;;;9.05;8.20;;;19.50;99.90;;;;;;5086834;28;20100;-58
2022/08/18 03:48:09;;;;;;;9.35;8.48;;;19.40;99.90;;;;;;5088395;28;20450;-57
2022/08/18 03:50:35;;;;;;;11.77;10.52;;;19.40;99.90;;;;;;5095896;28;20033;-57
2022/08/18 03:53:03;;;;;;;9.63;8.73;;;19.40;99.90;;;;;;5088343;28;20024;-58
2022/08/18 03:55:30;;;;;;;12.73;11.57;;;19.40;99.90;;;;;;5088151;28;20905;-58
2022/08/18 03:58:01;;;;;;;16.02;14.43;;;19.40;99.90;;;;;;5087262;28;20030;-58
2022/08/18 04:00:29;;;;;;;13.60;12.00;;;19.30;99.90;;;;;;5088310;28;20031;-58
2022/08/18 04:02:58;;;;;;;13.05;11.80;;;19.20;99.90;;;;;;5086043;28;20093;-58
2022/08/18 04:05:24;;;;;;;10.67;9.57;;;19.20;99.90;;;;;;5100307;28;20031;-58
2022/08/18 04:07:49;;;;;;;10.85;9.80;;;19.20;99.90;;;;;;5087992;28;20288;-58
2022/08/18 04:10:15;;;;;;;13.00;9.70;;;19.30;99.90;;;;;;5087941;28;20024;-58
2022/08/18 04:12:41;;;;;;;11.15;10.13;;;19.30;99.90;;;;;;5085824;28;20042;-59
2022/08/18 04:15:08;;;;;;;11.63;10.52;;;19.40;99.90;;;;;;5088286;28;20020;-58
2022/08/18 04:17:34;;;;;;;11.75;10.55;;;19.40;99.90;;;;;;5088067;28;20024;-58
2022/08/18 04:19:59;;;;;;;11.93;10.82;;;19.40;99.90;;;;;;5087689;28;20028;-57
2022/08/18 04:22:25;;;;;;;12.40;11.20;;;19.40;99.90;;;;;;5092342;28;20058;-58
2022/08/18 04:24:51;;;;;;;13.10;11.38;;;19.40;99.90;;;;;;5092149;28;20461;-58
2022/08/18 04:27:19;;;;;;;12.43;11.23;;;19.50;99.90;;;;;;5091787;28;20028;-57
2022/08/18 04:29:45;;;;;;;12.73;11.52;;;19.50;99.90;;;;;;5090925;28;20103;-58
2022/08/18 04:32:10;;;;;;;12.48;11.25;;;19.50;99.90;;;;;;5084390;28;20108;-57
2022/08/18 04:34:36;;;;;;;14.45;13.07;;;19.50;99.90;;;;;;5090440;28;20032;-57
2022/08/18 04:37:02;;;;;;;14.30;12.90;;;19.50;99.90;;;;;;5092018;28;20036;-58
2022/08/18 04:39:28;;;;;;;15.18;13.57;;;19.50;99.90;;;;;;5086676;28;20024;-58
2022/08/18 04:41:53;;;;;;;17.30;15.70;;;19.50;99.90;;;;;;5087379;28;20056;-57
2022/08/18 04:44:20;;;;;;;19.10;17.15;;;19.50;99.90;;;;;;5084888;28;20030;-57
2022/08/18 04:46:51;;;;;;;19.35;17.35;;;19.50;99.90;;;;;;5089950;28;20047;-58
2022/08/18 04:49:18;;;;;;;22.10;19.80;;;19.50;99.90;;;;;;5093052;28;20023;-56
2022/08/18 04:54:43;;;;;;;20.55;17.92;;;19.60;99.90;;;;;;5057286;28;20031;-57
2022/08/18 04:57:14;;;;;;;22.13;19.95;;;19.50;99.90;;;;;;5094859;28;20016;-58
2022/08/18 04:59:43;;;;;;;19.45;17.45;;;19.50;99.90;;;;;;5095134;28;20524;-58
2022/08/18 05:02:10;;;;;;;20.57;18.43;;;19.50;99.90;;;;;;5094764;28;20082;-58
2022/08/18 05:04:37;;;;;;;21.52;19.45;;;19.50;99.90;;;;;;5095013;28;20369;-58
2022/08/18 05:07:04;;;;;;;19.90;17.80;;;19.60;99.90;;;;;;5094632;28;20553;-58
2022/08/18 05:09:30;;;;;;;18.45;16.75;;;19.60;99.90;;;;;;5094547;28;20069;-57
2022/08/18 05:11:56;;;;;;;17.50;15.65;;;19.60;99.90;;;;;;5095030;28;20035;-58
2022/08/18 05:14:21;;;;;;;16.95;15.35;;;19.60;99.90;;;;;;5095079;28;20020;-58
2022/08/18 05:16:48;;;;;;;16.42;14.85;;;19.60;99.90;;;;;;5094620;28;20032;-57
2022/08/18 05:19:14;;;;;;;14.38;12.40;;;19.60;99.90;;;;;;5090952;28;20039;-57
2022/08/18 05:21:41;;;;;;;13.07;11.70;;;19.60;99.90;;;;;;5094389;28;20047;-57
2022/08/18 05:24:08;;;;;;;13.43;11.95;;;19.60;99.90;;;;;;5092841;28;20434;-57
2022/08/18 05:26:35;;;;;;;11.80;10.63;;;19.60;99.90;;;;;;5094226;28;20062;-57
2022/08/18 05:29:00;;;;;;;12.48;11.27;;;19.60;99.90;;;;;;5094493;28;20061;-58
2022/08/18 05:31:27;;;;;;;12.13;11.00;;;19.60;99.90;;;;;;5092680;28;20483;-57
2022/08/18 05:33:54;;;;;;;12.50;11.20;;;19.60;99.90;;;;;;5094437;28;20026;-57
2022/08/18 05:36:56;;;;;;;11.77;10.57;;;19.60;99.90;;;;;;5094376;28;20020;-58
2022/08/18 05:39:30;;;;;;;11.35;9.95;;;19.60;99.90;;;;;;5087051;28;20050;-57
2022/08/18 05:42:16;;;;;;;10.23;9.23;;;19.60;99.90;;;;;;5077020;28;20070;-57
2022/08/18 05:44:45;;;;;;;11.35;10.20;;;19.60;99.90;;;;;;5094152;28;20038;-57
2022/08/18 05:47:17;;;;;;;10.23;9.20;;;19.60;99.90;;;;;;5094139;28;20032;-58
2022/08/18 05:49:47;;;;;;;10.98;9.88;;;19.70;99.90;;;;;;5093961;28;20051;-57
2022/08/18 05:52:18;;;;;;;11.10;10.05;;;19.70;99.90;;;;;;5086928;28;20020;-57
2022/08/18 05:57:55;;;;;;;11.68;9.55;;;19.80;99.90;;;;;;5090934;28;20023;-57
2022/08/18 06:00:22;;;;;;;13.35;10.98;;;19.80;99.90;;;;;;5093773;28;20090;-58
2022/08/18 06:02:54;;;;;;;12.15;10.95;;;19.80;99.90;;;;;;5094046;28;20032;-57
2022/08/18 06:05:25;;;;;;;11.95;10.80;;;19.90;99.90;;;;;;5093308;28;20415;-57
2022/08/18 06:07:58;;;;;;;14.18;12.88;;;19.90;99.90;;;;;;5094121;28;20465;-57
2022/08/18 06:10:25;;;;;;;15.40;13.10;;;20.00;99.90;;;;;;5093260;28;20017;-58
2022/08/18 06:12:54;;;;;;;13.40;12.07;;;20.00;99.90;;;;;;5087217;28;20024;-57
2022/08/18 06:15:28;;;;;;;11.38;10.25;;;20.00;99.90;;;;;;5073380;28;20021;-57
2022/08/18 06:18:25;;;;;;;10.85;9.80;;;20.10;99.90;;;;;;5090366;28;20029;-57
2022/08/18 06:21:05;;;;;;;10.05;9.15;;;20.10;99.90;;;;;;5088907;28;20418;-58
2022/08/18 06:23:37;;;;;;;10.73;9.60;;;20.10;99.90;;;;;;5090374;28;20394;-58
2022/08/18 06:26:47;;;;;;;10.45;9.35;;;20.10;99.90;;;;;;5091230;28;20020;-58
2022/08/18 06:29:51;;;;;;;9.85;8.88;;;20.30;99.90;;;;;;5084708;28;20036;-59
2022/08/18 06:32:35;;;;;;;8.98;8.05;;;20.30;99.90;;;;;;5093125;28;20113;-57
2022/08/18 06:35:34;;;;;;;9.32;8.38;;;20.40;99.90;;;;;;5089132;28;20020;-58
2022/08/18 06:41:07;;;;;;;9.45;7.53;;;20.50;99.90;;;;;;5087615;28;20070;-57
2022/08/18 06:43:34;;;;;;;10.52;9.55;;;20.60;99.90;;;;;;5088277;28;20419;-57
2022/08/18 06:46:06;;;;;;;10.25;9.23;;;20.60;99.90;;;;;;5091491;28;20032;-58
2022/08/18 06:48:53;;;;;;;8.52;7.28;;;20.60;99.90;;;;;;5089288;28;20139;-58
2022/08/18 06:51:20;;;;;;;8.40;7.63;;;20.70;99.90;;;;;;5088373;28;20052;-57
2022/08/18 06:53:57;;;;;;;7.82;7.03;;;20.80;99.90;;;;;;5084369;28;20362;-57
2022/08/18 06:56:44;;;;;;;7.55;6.85;;;20.80;99.90;;;;;;5079901;28;20035;-58
2022/08/18 06:59:33;;;;;;;7.15;6.45;;;20.90;99.90;;;;;;5090983;28;20459;-58
2022/08/18 07:02:24;;;;;;;6.90;6.28;;;21.10;99.90;;;;;;5089121;28;20405;-57
2022/08/18 07:05:00;;;;;;;8.27;7.50;;;21.10;99.90;;;;;;5086278;28;20481;-59
2022/08/18 07:07:35;;;;;;;7.93;7.15;;;21.20;99.90;;;;;;5087461;28;20067;-57
2022/08/18 07:10:06;;;;;;;7.88;7.18;;;21.20;99.90;;;;;;5081919;28;20099;-58
2022/08/18 07:12:31;;;;;;;9.27;7.60;;;21.30;99.90;;;;;;5088644;28;20382;-56
2022/08/18 07:15:00;;;;;;;7.90;6.97;;;21.30;99.90;;;;;;5081496;28;20039;-58
2022/08/18 07:17:32;;;;;;;8.23;7.00;;;21.40;99.90;;;;;;5088719;28;20417;-57
2022/08/18 07:20:16;;;;;;;7.57;6.88;;;21.40;99.80;;;;;;5082554;28;20262;-57
2022/08/18 07:22:59;;;;;;;7.90;7.05;;;21.40;99.60;;;;;;5089618;28;20122;-58
2022/08/18 07:25:36;;;;;;;7.20;6.50;;;21.40;99.50;;;;;;5092669;28;20098;-58
2022/08/18 07:28:02;;;;;;;6.35;5.85;;;21.40;99.50;;;;;;5090099;28;20073;-58
2022/08/18 07:30:35;;;;;;;6.93;6.13;;;21.40;99.50;;;;;;5091567;28;20024;-58
2022/08/18 07:33:03;;;;;;;6.63;5.85;;;21.50;99.40;;;;;;5091464;28;20024;-58
2022/08/18 07:35:39;;;;;;;5.40;4.88;;;21.50;99.40;;;;;;5090788;28;20027;-58
2022/08/18 07:38:20;;;;;;;6.13;5.53;;;21.60;99.20;;;;;;5092140;28;20077;-58
2022/08/18 07:40:59;;;;;;;7.20;6.15;;;21.70;99.10;;;;;;5091014;28;20524;-57
2022/08/18 07:43:37;;;;;;;6.63;6.00;;;21.80;99.00;;;;;;5089117;28;20090;-58
2022/08/18 07:46:18;;;;;;;7.43;6.10;;;21.90;98.90;;;;;;5089123;28;20516;-57
2022/08/18 07:48:43;;;;;;;4.32;3.95;;;22.00;98.70;;;;;;5088162;28;20378;-58
2022/08/18 07:51:21;;;;;;;4.80;4.25;;;22.10;98.60;;;;;;5089272;28;20095;-58
2022/08/18 07:54:21;;;;;;;3.75;3.45;;;22.30;98.40;;;;;;5089614;28;20024;-58
2022/08/18 07:57:11;;;;;;;4.90;3.95;;;22.40;98.10;;;;;;5093800;28;20024;-57
2022/08/18 08:00:08;;;;;;;4.95;3.30;;;22.50;98.00;;;;;;5092580;28;20390;-57
2022/08/18 08:02:43;;;;;;;4.75;4.35;;;22.60;97.80;;;;;;5091165;28;20020;-58
2022/08/18 08:05:19;;;;;;;5.38;4.70;;;22.70;97.90;;;;;;5094804;28;20035;-57
2022/08/18 08:07:50;;;;;;;4.05;3.65;;;22.70;97.20;;;;;;5094708;28;20490;-58
2022/08/18 08:10:32;;;;;;;5.05;4.05;;;22.80;97.10;;;;;;5094608;28;20020;-57
2022/08/18 08:13:32;;;;;;;4.32;3.85;;;22.90;96.90;;;;;;5094755;28;20038;-58
2022/08/18 08:16:15;;;;;;;3.75;3.45;;;23.00;96.80;;;;;;5109150;28;20098;-58
2022/08/18 08:19:12;;;;;;;4.30;3.90;;;23.10;96.60;;;;;;5092860;28;20020;-58
2022/08/18 08:21:58;;;;;;;6.45;4.30;;;23.20;96.30;;;;;;5092104;28;20402;-58
2022/08/18 08:24:33;;;;;;;4.55;4.07;;;23.20;96.10;;;;;;5079242;28;20019;-58
2022/08/18 08:27:19;;;;;;;6.28;4.53;;;23.30;96.10;;;;;;5094384;28;20016;-57
2022/08/18 08:29:57;;;;;;;4.78;3.85;;;23.40;95.80;;;;;;5093905;28;20100;-58
2022/08/18 08:32:33;;;;;;;6.25;3.92;;;23.50;95.60;;;;;;5094663;28;20702;-58
2022/08/18 08:35:18;;;;;;;4.07;3.67;;;23.70;95.40;;;;;;5093312;28;20465;-58
2022/08/18 08:37:59;;;;;;;7.22;4.40;;;23.80;95.20;;;;;;5094200;28;20032;-58
2022/08/18 08:40:56;;;;;;;7.18;4.72;;;23.90;94.80;;;;;;5091782;28;20095;-57
2022/08/18 08:43:29;;;;;;;4.45;4.05;;;24.00;94.40;;;;;;5078944;28;20081;-58
2022/08/18 08:46:15;;;;;;;6.68;4.68;;;24.00;94.40;;;;;;5091848;28;20077;-58
2022/08/18 08:48:51;;;;;;;3.88;3.47;;;24.10;94.10;;;;;;5092956;28;20028;-58
2022/08/18 08:51:29;;;;;;;3.80;3.33;;;24.10;94.10;;;;;;5093959;28;20016;-57
2022/08/18 08:54:09;;;;;;;3.40;2.70;;;24.00;93.80;;;;;;5091680;28;20074;-57
2022/08/18 08:56:38;;;;;;;;;;;24.00;93.80;;;;;;5094076;28;20107;-57
2022/08/18 08:59:11;;;;;;;4.13;3.10;;;23.90;94.00;;;;;;5095158;28;20000;-57
2022/08/18 09:01:50;;;;;;;3.70;3.38;;;23.90;93.90;;;;;;5095422;28;20106;-57
2022/08/18 09:04:48;;;;;;;3.28;2.75;;;23.90;93.80;;;;;;5083032;28;20020;-58
2022/08/18 09:07:29;;;;;;;3.83;3.40;;;24.10;93.70;;;;;;5094115;28;20031;-58
2022/08/18 09:10:03;;;;;;;3.95;3.17;;;24.10;93.50;;;;;;5093562;28;20385;-57
2022/08/18 09:12:50;;;;;;;3.50;3.00;;;24.20;93.50;;;;;;5095155;28;20077;-57
2022/08/18 09:15:40;;;;;;;5.20;3.05;;;24.30;93.30;;;;;;5093489;28;20032;-57
2022/08/18 09:18:24;;;;;;;4.13;3.08;;;24.50;93.00;;;;;;5093097;28;20028;-57
2022/08/18 09:21:03;;;;;;;4.75;3.28;;;24.60;92.70;;;;;;5093618;28;20062;-57
2022/08/18 09:23:37;;;;;;;;;;;24.70;92.60;;;;;;5089193;28;20117;-57
2022/08/18 09:26:37;;;;;;;3.28;2.97;;;24.70;92.50;;;;;;5091613;28;19904;-57
2022/08/18 09:29:44;;;;;;;4.07;2.85;;;24.80;92.00;;;;;;5090836;28;20019;-57
2022/08/18 09:32:21;;;;;;;4.35;2.90;;;24.90;91.70;;;;;;5085817;28;20102;-57
2022/08/18 09:34:56;;;;;;;2.42;2.22;;;25.00;91.10;;;;;;5076996;28;20103;-56
2022/08/18 09:37:41;;;;;;;3.50;3.20;;;25.20;90.80;;;;;;5087476;28;20024;-57
2022/08/18 09:43:30;;;;;;;2.60;2.00;;;25.50;90.10;;;;;;5094511;28;20570;-57
2022/08/18 09:45:58;;;;;;;3.25;2.40;;;25.50;89.80;;;;;;5094518;28;20401;-57
2022/08/18 09:48:36;;;;;;;4.03;2.72;;;25.40;89.60;;;;;;5074960;28;20060;-57
2022/08/18 09:51:19;;;;;;;2.50;2.30;;;25.40;89.10;;;;;;5075265;28;20078;-57
2022/08/18 09:53:45;;;;;;;3.67;2.70;;;25.40;89.00;;;;;;5085198;28;20020;-57
2022/08/18 09:56:16;;;;;;;3.28;2.67;;;25.40;88.40;;;;;;5081208;28;20023;-58
2022/08/18 09:58:51;;;;;;;3.67;2.08;;;25.50;87.40;;;;;;5094113;28;20024;-57
2022/08/18 10:01:29;;;;;;;2.88;2.55;;;25.60;87.20;;;;;;5094145;28;20526;-57
2022/08/18 10:04:12;;;;;;;4.70;2.53;;;25.70;86.90;;;;;;5092577;28;20008;-57
2022/08/18 10:06:42;;;;;;;3.25;2.17;;;25.90;86.10;;;;;;5093126;28;20035;-57
2022/08/18 10:09:28;;;;;;;2.80;2.15;;;26.00;86.00;;;;;;5082454;28;20032;-57
2022/08/18 10:12:13;;;;;;;1.85;1.70;;;26.20;85.30;;;;;;5066057;28;20053;-57
2022/08/18 10:14:59;;;;;;;2.30;1.98;;;26.20;84.80;;;;;;5083617;28;20095;-57
2022/08/18 10:17:46;;;;;;;2.63;2.42;;;26.20;84.40;;;;;;5069655;28;20071;-58
2022/08/18 10:20:23;;;;;;;3.42;2.42;;;26.30;84.00;;;;;;5092236;28;20024;-57
2022/08/18 10:22:49;;;;;;;2.30;2.10;;;26.30;83.70;;;;;;5092183;28;20016;-57
2022/08/18 10:25:45;;;;;;;2.53;2.33;;;26.40;83.40;;;;;;5093675;28;20022;-57
2022/08/18 10:28:49;;;;;;;3.55;2.30;;;26.60;82.70;;;;;;5087115;28;20016;-56
2022/08/18 10:31:14;;;;;;;2.20;2.00;;;26.70;81.40;;;;;;5090797;28;20389;-57
2022/08/18 10:34:09;;;;;;;3.40;2.65;;;26.70;80.80;;;;;;5092633;28;20024;-57
2022/08/18 10:36:45;;;;;;;4.65;2.20;;;26.80;80.10;;;;;;5081325;28;20032;-56
2022/08/18 10:39:15;;;;;;;3.65;1.98;;;26.80;80.30;;;;;;5081735;28;20029;-57
2022/08/18 10:42:01;;;;;;;2.70;1.70;;;26.90;80.20;;;;;;5088443;28;20041;-57
2022/08/18 10:44:30;;;;;;;2.15;1.95;;;27.10;79.80;;;;;;5091806;28;20103;-56
2022/08/18 10:46:58;;;;;;;1.80;1.70;;;27.30;79.40;;;;;;5078183;28;20099;-57
2022/08/18 10:49:27;;;;;;;2.95;2.35;;;27.50;78.10;;;;;;5082860;28;20027;-57
2022/08/18 10:52:20;;;;;;;2.35;2.03;;;27.60;77.50;;;;;;5087066;28;20103;-57
2022/08/18 10:55:10;;;;;;;2.13;1.92;;;27.80;77.40;;;;;;5075703;28;20504;-57
2022/08/18 10:58:00;;;;;;;2.30;2.10;;;27.80;76.70;;;;;;5073782;28;20107;-57
2022/08/18 11:00:47;;;;;;;3.65;2.47;;;27.80;76.70;;;;;;5102647;28;20436;-57
2022/08/18 11:03:31;;;;;;;4.05;2.65;;;27.80;76.10;;;;;;5092385;28;20054;-57
2022/08/18 11:06:07;;;;;;;2.70;2.30;;;27.70;76.20;;;;;;5086139;28;20055;-57
2022/08/18 11:08:41;;;;;;;2.28;2.08;;;27.80;75.80;;;;;;5090323;28;20027;-57
2022/08/18 11:11:09;;;;;;;2.47;2.28;;;28.00;75.20;;;;;;5092068;28;20020;-57
2022/08/18 11:13:44;;;;;;;3.15;2.17;;;28.30;74.80;;;;;;5092587;28;20055;-57
2022/08/18 11:16:31;;;;;;;2.55;2.35;;;28.50;74.50;;;;;;5092124;28;20533;-57
2022/08/18 11:19:09;;;;;;;2.78;2.08;;;28.80;73.70;;;;;;5091694;28;20020;-57
2022/08/18 11:21:41;;;;;;;3.28;2.20;;;29.00;73.00;;;;;;5089613;28;20149;-57
2022/08/18 11:24:26;;;;;;;4.47;2.50;;;29.10;71.70;;;;;;5089099;28;20491;-57
2022/08/18 11:27:00;;;;;;;2.90;2.60;;;29.30;69.40;;;;;;5082819;28;20454;-57
2022/08/18 11:29:31;;;;;;;2.95;2.08;;;29.10;68.60;;;;;;5088768;28;20513;-57
2022/08/18 11:32:08;;;;;;;2.17;1.83;;;29.30;69.20;;;;;;5092603;28;20086;-57
2022/08/18 11:34:58;;;;;;;1.70;1.58;;;29.80;68.90;;;;;;5087820;28;20024;-56
2022/08/18 11:37:45;;;;;;;1.70;1.60;;;30.20;68.30;;;;;;5090849;28;20024;-58
2022/08/18 11:40:23;;;;;;;4.63;2.33;;;30.40;68.00;;;;;;5091624;28;20016;-57
2022/08/18 11:43:02;;;;;;;2.88;1.77;;;30.40;66.70;;;;;;5091660;28;20093;-58
2022/08/18 11:45:52;;;;;;;2.08;1.80;;;30.40;66.80;;;;;;5092432;28;20059;-58
2022/08/18 11:48:37;;;;;;;2.38;2.10;;;30.50;66.40;;;;;;5091698;28;20039;-57
2022/08/18 11:51:16;;;;;;;2.90;1.80;;;30.50;65.90;;;;;;5091721;28;20031;-58
2022/08/18 11:53:48;;;;;;;1.60;1.35;;;30.40;65.40;;;;;;5075082;28;20020;-57
2022/08/18 11:56:23;;;;;;;1.95;1.80;;;30.40;65.30;;;;;;5091768;28;20012;-57
2022/08/18 11:58:55;;;;;;;2.00;1.63;;;30.60;65.00;;;;;;5081098;28;20019;-58
2022/08/18 12:01:53;;;;;;;1.65;1.55;;;30.70;64.50;;;;;;5092140;28;20056;-57
2022/08/18 12:04:19;;;;;;;2.20;2.00;;;31.00;63.60;;;;;;5076141;28;20034;-57
2022/08/18 12:07:02;;;;;;;2.92;1.77;;;31.10;61.70;;;;;;5090284;28;20103;-57
2022/08/18 12:09:30;;;;;;;2.35;1.70;;;31.40;62.00;;;;;;5090834;28;20016;-58
2022/08/18 12:12:00;;;;;;;2.20;1.67;;;31.60;61.70;;;;;;5090612;28;20028;-57
2022/08/18 12:14:30;;;;;;;3.33;1.58;;;31.70;61.30;;;;;;5092534;28;20048;-57
2022/08/18 12:16:56;;;;;;;2.05;1.58;;;31.80;60.80;;;;;;5089971;28;20020;-58
2022/08/18 12:19:23;;;;;;;1.95;1.60;;;31.80;60.60;;;;;;5091779;28;20384;-58
2022/08/18 12:21:58;;;;;;;2.15;1.65;;;31.80;60.30;;;;;;5091684;28;20032;-57
2022/08/18 12:24:27;;;;;;;2.38;1.77;;;31.60;60.30;;;;;;5091318;28;20546;-57
2022/08/18 12:26:53;;;;;;;2.30;2.10;;;31.30;60.60;;;;;;5091920;28;20040;-57
2022/08/18 12:29:19;;;;;;;2.25;2.05;;;31.20;61.30;;;;;;5091162;28;20092;-57
2022/08/18 12:31:47;;;;;;;2.30;2.10;;;31.00;61.60;;;;;;5092105;28;20028;-57
2022/08/18 12:34:12;;;;;;;2.15;1.90;;;30.80;61.50;;;;;;5089735;28;20020;-57
2022/08/18 12:36:38;;;;;;;2.17;1.98;;;30.60;61.90;;;;;;5089901;28;20375;-57
2022/08/18 12:39:04;;;;;;;2.05;1.83;;;30.60;61.80;;;;;;5088230;28;20036;-58
2022/08/18 12:41:30;;;;;;;3.75;2.33;;;30.60;61.90;;;;;;5083731;28;20153;-57
2022/08/18 12:43:55;;;;;;;2.53;1.80;;;30.70;61.20;;;;;;5095389;28;20023;-57
2022/08/18 12:46:21;;;;;;;1.85;1.75;;;30.80;61.20;;;;;;5071003;28;20462;-57
2022/08/18 12:48:48;;;;;;;2.10;1.75;;;31.00;60.90;;;;;;5084251;28;20465;-58
2022/08/18 12:51:13;;;;;;;2.22;1.65;;;31.20;60.50;;;;;;5093509;28;20016;-57
2022/08/18 12:53:39;;;;;;;3.30;1.73;;;31.20;60.20;;;;;;5085795;28;20024;-57
2022/08/18 12:56:17;;;;;;;1.77;1.52;;;31.20;60.20;;;;;;5081877;28;20036;-57
2022/08/18 12:58:43;;;;;;;1.73;1.63;;;31.10;60.10;;;;;;5087236;28;20021;-57
2022/08/18 13:01:09;;;;;;;2.33;1.60;;;31.00;60.50;;;;;;5086889;28;20020;-57
2022/08/18 13:03:34;;;;;;;3.28;1.73;;;30.90;60.70;;;;;;5094830;28;20042;-57
2022/08/18 13:06:00;;;;;;;2.40;1.73;;;30.70;60.80;;;;;;5086359;28;20051;-57
2022/08/18 13:08:25;;;;;;;1.73;1.63;;;30.60;61.30;;;;;;5094712;28;20027;-57
2022/08/18 13:10:51;;;;;;;2.08;1.85;;;30.40;61.70;;;;;;5093386;28;20031;-57
2022/08/18 13:13:18;;;;;;;2.75;1.73;;;30.20;62.00;;;;;;5092297;28;20032;-57
2022/08/18 13:15:45;;;;;;;2.05;1.75;;;30.10;62.30;;;;;;5086836;28;20036;-57
2022/08/18 13:18:11;;;;;;;1.63;1.52;;;30.00;62.70;;;;;;5089975;28;20082;-57
2022/08/18 13:20:37;;;;;;;1.83;1.58;;;29.80;62.90;;;;;;5091977;28;20052;-57
2022/08/18 13:23:03;;;;;;;2.13;1.60;;;29.70;63.10;;;;;;5091770;28;20058;-57
2022/08/18 13:25:28;;;;;;;1.70;1.60;;;29.70;63.10;;;;;;5085866;28;20151;-57
2022/08/18 13:27:55;;;;;;;2.20;1.85;;;29.50;63.10;;;;;;5088904;28;20073;-57
2022/08/18 13:30:21;;;;;;;3.08;1.75;;;29.50;63.30;;;;;;5085387;28;20027;-57
2022/08/18 13:32:47;;;;;;;1.90;1.60;;;29.40;63.40;;;;;;5088114;28;20051;-57